Time;durP1;ratioP1;P1;durP2;ratioP2;P2;SDS_P1;SDS_P2;PMS_P1;PMS_P2;Temp;Humidity;BMP_temperature;BMP_pressure;BME280_temperature;BME280_humidity;BME280_pressure;Samples;Min_cycle;Max_cycle;Signal;HPM_P1;HPM_P2
2023/01/24 00:01:52;;;;;;;30.87;14.70;;;3.40;99.90;;;;;;5042309;28;20221;-47
2023/01/24 00:04:20;;;;;;;27.80;14.10;;;3.40;99.90;;;;;;5029489;28;20203;-51
2023/01/24 00:06:47;;;;;;;31.60;14.17;;;3.40;99.90;;;;;;5024851;28;20218;-44
2023/01/24 00:09:14;;;;;;;28.57;13.63;;;3.40;99.90;;;;;;5041824;28;20199;-51
2023/01/24 00:11:41;;;;;;;28.70;14.00;;;3.40;99.90;;;;;;5028780;28;20230;-45
2023/01/24 00:14:08;;;;;;;28.27;13.90;;;3.40;99.90;;;;;;5036269;28;20204;-47
2023/01/24 00:16:34;;;;;;;30.97;13.97;;;3.40;99.90;;;;;;5042154;28;20202;-47
2023/01/24 00:19:01;;;;;;;29.57;13.83;;;3.40;99.90;;;;;;5040321;28;20218;-44
2023/01/24 00:21:29;;;;;;;29.93;14.17;;;3.40;99.90;;;;;;5027719;28;20247;-50
2023/01/24 00:23:56;;;;;;;26.57;14.20;;;3.40;99.90;;;;;;5038243;28;20199;-48
2023/01/24 00:26:25;;;;;;;30.23;14.53;;;3.40;99.90;;;;;;5044295;28;20210;-50
2023/01/24 00:28:52;;;;;;;27.00;13.87;;;3.40;99.90;;;;;;5046222;28;20200;-44
2023/01/24 00:31:19;;;;;;;29.30;13.50;;;3.30;99.90;;;;;;5031431;28;20713;-49
2023/01/24 00:33:46;;;;;;;28.13;14.37;;;3.40;99.90;;;;;;5038199;28;21377;-44
2023/01/24 00:36:13;;;;;;;27.80;13.77;;;3.40;99.90;;;;;;5030401;28;20192;-49
2023/01/24 00:38:42;;;;;;;32.07;14.53;;;3.40;99.90;;;;;;5025374;28;20796;-44
2023/01/24 00:41:09;;;;;;;31.10;14.33;;;3.30;99.90;;;;;;5045764;28;20213;-44
2023/01/24 00:43:36;;;;;;;30.83;14.60;;;3.30;99.90;;;;;;5041242;28;20290;-43
2023/01/24 00:46:06;;;;;;;27.57;14.60;;;3.30;99.90;;;;;;5026806;28;20208;-44
2023/01/24 00:48:33;;;;;;;24.33;12.77;;;3.30;99.90;;;;;;5042318;28;20262;-44
2023/01/24 00:51:00;;;;;;;29.97;15.00;;;3.30;99.90;;;;;;5035552;28;20277;-44
2023/01/24 00:53:26;;;;;;;27.50;14.27;;;3.30;99.90;;;;;;5026165;28;20207;-50
2023/01/24 00:55:55;;;;;;;26.60;12.93;;;3.40;99.90;;;;;;5045592;28;20199;-47
2023/01/24 00:58:22;;;;;;;28.37;13.67;;;3.30;99.90;;;;;;5042673;28;20645;-48
2023/01/24 01:00:49;;;;;;;28.10;13.47;;;3.40;99.90;;;;;;5037646;28;20215;-49
2023/01/24 01:03:18;;;;;;;24.77;13.73;;;3.40;99.90;;;;;;5044821;28;20203;-52
2023/01/24 01:05:45;;;;;;;28.63;14.30;;;3.30;99.90;;;;;;5035414;28;20208;-44
2023/01/24 01:08:13;;;;;;;28.80;14.40;;;3.30;99.90;;;;;;5039586;28;20203;-51
2023/01/24 01:10:40;;;;;;;32.47;14.40;;;3.40;99.90;;;;;;5042253;28;20227;-45
2023/01/24 01:13:12;;;;;;;24.57;13.80;;;3.30;99.90;;;;;;5043908;28;20195;-44
2023/01/24 01:15:39;;;;;;;25.30;12.67;;;3.30;99.90;;;;;;5032083;28;20220;-49
2023/01/24 01:18:05;;;;;;;28.63;14.50;;;3.30;99.90;;;;;;5029087;28;20207;-45
2023/01/24 01:20:33;;;;;;;29.17;13.80;;;3.40;99.90;;;;;;5041412;28;20671;-45
2023/01/24 01:23:00;;;;;;;33.83;14.23;;;3.30;99.90;;;;;;5017631;28;20221;-53
2023/01/24 01:25:27;;;;;;;25.90;13.73;;;3.30;99.90;;;;;;5035837;28;20206;-46
2023/01/24 01:27:54;;;;;;;29.13;14.70;;;3.30;99.90;;;;;;5042466;28;20609;-47
2023/01/24 01:30:22;;;;;;;25.17;13.43;;;3.30;99.90;;;;;;5039732;28;20701;-50
2023/01/24 01:32:48;;;;;;;32.27;14.70;;;3.30;99.90;;;;;;5030956;28;20777;-51
2023/01/24 01:35:15;;;;;;;28.70;13.70;;;3.30;99.90;;;;;;5043721;28;21103;-49
2023/01/24 01:37:42;;;;;;;24.10;13.50;;;3.30;99.90;;;;;;5027067;28;20227;-51
2023/01/24 01:40:10;;;;;;;24.13;14.83;;;3.30;99.90;;;;;;5018276;28;20236;-47
2023/01/24 01:42:55;;;;;;;30.27;14.03;;;3.30;99.90;;;;;;5041408;28;20204;-44
2023/01/24 01:45:45;;;;;;;28.80;14.10;;;3.30;99.90;;;;;;5044176;28;20256;-44
2023/01/24 01:48:24;;;;;;;29.60;13.53;;;3.20;99.90;;;;;;5023620;28;20199;-47
2023/01/24 01:50:57;;;;;;;24.97;12.77;;;3.20;99.90;;;;;;5040984;28;20239;-50
2023/01/24 01:53:27;;;;;;;23.17;12.87;;;3.20;99.90;;;;;;5036483;28;20208;-47
2023/01/24 01:56:01;;;;;;;23.73;13.17;;;3.30;99.90;;;;;;5019443;28;20561;-53
2023/01/24 01:58:28;;;;;;;32.10;14.07;;;3.30;99.90;;;;;;5038333;28;20741;-49
2023/01/24 02:00:56;;;;;;;31.10;13.83;;;3.30;99.90;;;;;;5034666;28;20220;-49
2023/01/24 02:03:39;;;;;;;27.37;13.63;;;3.30;99.90;;;;;;5032326;28;20204;-45
2023/01/24 02:06:20;;;;;;;27.00;13.20;;;3.30;99.90;;;;;;5035271;28;20311;-45
2023/01/24 02:08:49;;;;;;;28.60;14.43;;;3.20;99.90;;;;;;5027996;28;20213;-49
2023/01/24 02:16:48;;;;;;;30.00;13.63;;;3.20;99.90;;;;;;5036936;28;20199;-49
2023/01/24 02:19:28;;;;;;;26.20;13.53;;;3.30;99.90;;;;;;5032065;28;20407;-45
2023/01/24 02:22:03;;;;;;;25.80;13.97;;;3.20;99.90;;;;;;5035218;28;20211;-46
2023/01/24 02:24:37;;;;;;;26.07;13.27;;;3.20;99.90;;;;;;5029929;28;20215;-52
2023/01/24 02:27:05;;;;;;;26.23;13.20;;;3.30;99.90;;;;;;5025195;28;20227;-47
2023/01/24 02:29:33;;;;;;;26.00;13.73;;;3.20;99.90;;;;;;5031676;28;20211;-50
2023/01/24 02:32:03;;;;;;;23.50;12.73;;;3.20;99.90;;;;;;5041999;28;20712;-44
2023/01/24 02:34:30;;;;;;;30.00;13.90;;;3.20;99.90;;;;;;5030866;28;20195;-49
2023/01/24 02:36:59;;;;;;;25.90;13.70;;;3.20;99.90;;;;;;5041820;28;20924;-45
2023/01/24 02:39:30;;;;;;;26.83;13.77;;;3.30;99.90;;;;;;5029611;28;20227;-49
2023/01/24 02:42:01;;;;;;;28.10;13.60;;;3.20;99.90;;;;;;5024521;28;20206;-50
2023/01/24 02:44:37;;;;;;;21.90;12.13;;;3.30;99.90;;;;;;5034364;28;20195;-47
2023/01/24 02:47:04;;;;;;;24.27;12.70;;;3.20;99.90;;;;;;5043230;28;20203;-49
2023/01/24 02:49:31;;;;;;;20.53;12.57;;;3.20;99.90;;;;;;5026887;28;20210;-51
2023/01/24 02:54:43;;;;;;;21.47;12.60;;;3.30;99.90;;;;;;5028641;28;20203;-48
2023/01/24 02:59:55;;;;;;;27.77;13.47;;;3.20;99.90;;;;;;5030590;28;20214;-45
2023/01/24 03:02:21;;;;;;;25.17;13.13;;;3.20;99.90;;;;;;5042651;28;20199;-53
2023/01/24 03:04:50;;;;;;;28.20;12.97;;;3.20;99.90;;;;;;5033050;28;20253;-48
2023/01/24 03:07:18;;;;;;;25.53;13.17;;;3.20;99.90;;;;;;5042743;28;20211;-44
2023/01/24 03:09:50;;;;;;;24.17;12.57;;;3.20;99.90;;;;;;5036931;28;20222;-46
2023/01/24 03:34:31;;;;;;;20.80;11.80;;;3.10;99.90;;;;;;5041136;28;20204;-51
2023/01/24 03:36:58;;;;;;;21.43;11.80;;;3.10;99.90;;;;;;5023506;28;20802;-46
2023/01/24 03:42:10;;;;;;;22.50;12.40;;;3.10;99.90;;;;;;5030579;28;20569;-51
2023/01/24 03:44:36;;;;;;;21.23;11.50;;;3.10;99.90;;;;;;5021252;28;20289;-50
2023/01/24 03:47:05;;;;;;;20.40;12.27;;;3.10;99.90;;;;;;5034814;28;20223;-48
2023/01/24 03:52:28;;;;;;;20.20;11.57;;;3.10;99.90;;;;;;5035531;28;20272;-47
2023/01/24 03:54:58;;;;;;;24.63;12.93;;;3.10;99.90;;;;;;5040993;28;20200;-46
2023/01/24 03:57:26;;;;;;;20.70;11.23;;;3.10;99.90;;;;;;5034590;28;20207;-52
2023/01/24 03:59:53;;;;;;;22.70;12.23;;;3.10;99.90;;;;;;5021992;28;20207;-46
2023/01/24 04:02:22;;;;;;;20.90;12.00;;;3.10;99.90;;;;;;5033969;28;20195;-48
2023/01/24 04:07:34;;;;;;;18.20;11.13;;;3.10;99.90;;;;;;5025494;28;20704;-50
2023/01/24 04:10:05;;;;;;;24.50;11.93;;;3.10;99.90;;;;;;5039908;28;20269;-43
2023/01/24 04:12:38;;;;;;;19.47;11.30;;;3.10;99.90;;;;;;5031589;28;20234;-51
2023/01/24 04:15:06;;;;;;;21.30;11.27;;;3.10;99.90;;;;;;5037791;28;20225;-46
2023/01/24 04:17:35;;;;;;;26.63;12.40;;;3.10;99.90;;;;;;5028139;28;20682;-47
2023/01/24 04:20:04;;;;;;;28.77;12.93;;;3.10;99.90;;;;;;5052017;28;20211;-45
2023/01/24 04:22:31;;;;;;;21.53;11.40;;;3.00;99.90;;;;;;5033127;28;20195;-52
2023/01/24 04:25:00;;;;;;;19.93;11.33;;;3.10;99.90;;;;;;5039500;28;20207;-43
2023/01/24 04:27:31;;;;;;;20.97;12.07;;;3.10;99.90;;;;;;5039125;28;20203;-53
2023/01/24 04:30:14;;;;;;;20.60;11.27;;;3.10;99.90;;;;;;5024982;28;20250;-52
2023/01/24 04:32:45;;;;;;;21.07;11.57;;;3.00;99.90;;;;;;5035358;28;20230;-50
2023/01/24 04:35:25;;;;;;;20.47;11.90;;;3.10;99.90;;;;;;5024517;28;20203;-49
2023/01/24 04:37:58;;;;;;;18.77;11.10;;;3.10;99.90;;;;;;5040169;28;20230;-43
2023/01/24 04:40:45;;;;;;;20.93;11.07;;;3.10;99.90;;;;;;5016565;28;20349;-47
2023/01/24 04:43:14;;;;;;;18.53;10.80;;;3.00;99.90;;;;;;5041237;28;20214;-47
2023/01/24 04:45:44;;;;;;;19.93;10.77;;;3.00;99.90;;;;;;5001710;28;20203;-44
2023/01/24 04:48:16;;;;;;;22.87;10.83;;;3.00;99.90;;;;;;5032707;28;20246;-44
2023/01/24 04:50:43;;;;;;;20.97;11.13;;;3.00;99.90;;;;;;5031146;28;20234;-46
2023/01/24 04:53:10;;;;;;;17.57;11.17;;;3.10;99.90;;;;;;5039398;28;20215;-44
2023/01/24 04:55:38;;;;;;;20.50;11.27;;;3.00;99.90;;;;;;5045878;28;20829;-52
2023/01/24 04:58:04;;;;;;;20.50;11.50;;;3.00;99.90;;;;;;5043811;28;20550;-48
2023/01/24 05:00:31;;;;;;;18.43;11.07;;;3.00;99.90;;;;;;5026323;28;20224;-46
2023/01/24 05:02:58;;;;;;;22.27;11.40;;;3.00;99.90;;;;;;5038259;28;20207;-51
2023/01/24 05:05:26;;;;;;;20.70;11.07;;;3.00;99.90;;;;;;5022372;28;20203;-43
2023/01/24 05:07:53;;;;;;;19.27;11.03;;;2.90;99.90;;;;;;5031672;28;20212;-48
2023/01/24 05:10:23;;;;;;;15.60;9.30;;;2.90;99.90;;;;;;5028765;28;20340;-45
2023/01/24 05:12:50;;;;;;;17.57;11.10;;;2.90;99.90;;;;;;5043402;28;20234;-44
2023/01/24 05:15:22;;;;;;;19.13;10.20;;;3.00;99.90;;;;;;5029569;28;20215;-48
2023/01/24 05:17:49;;;;;;;20.17;9.87;;;3.00;99.90;;;;;;5024143;28;20211;-50
2023/01/24 05:20:20;;;;;;;17.37;10.90;;;3.00;99.90;;;;;;5032678;28;21038;-48
2023/01/24 05:22:48;;;;;;;20.13;11.17;;;3.00;99.90;;;;;;5029639;28;20208;-49
2023/01/24 05:25:16;;;;;;;18.27;10.57;;;3.00;99.90;;;;;;5038313;28;20196;-46
2023/01/24 05:27:44;;;;;;;18.37;10.80;;;2.90;99.90;;;;;;5031360;28;20204;-48
2023/01/24 05:30:13;;;;;;;19.47;10.03;;;3.00;99.90;;;;;;5033762;28;20996;-47
2023/01/24 05:32:40;;;;;;;16.43;9.63;;;3.00;99.90;;;;;;5021966;28;20219;-46
2023/01/24 05:35:09;;;;;;;17.93;10.93;;;3.00;99.90;;;;;;5036187;28;20195;-51
2023/01/24 05:37:37;;;;;;;19.17;10.03;;;3.00;99.90;;;;;;5024225;28;20200;-44
2023/01/24 05:40:26;;;;;;;17.53;9.90;;;3.00;99.90;;;;;;5036539;28;20226;-48
2023/01/24 05:42:53;;;;;;;18.60;10.63;;;3.00;99.90;;;;;;5033632;28;20222;-50
2023/01/24 05:45:21;;;;;;;18.33;10.50;;;3.00;99.90;;;;;;5034820;28;20548;-46
2023/01/24 05:47:48;;;;;;;19.67;9.77;;;3.00;99.90;;;;;;5034652;28;20195;-46
2023/01/24 05:50:18;;;;;;;15.57;9.07;;;3.00;99.90;;;;;;5026601;28;20219;-44
2023/01/24 05:52:45;;;;;;;18.63;10.70;;;3.00;99.90;;;;;;5029945;28;20235;-47
2023/01/24 05:55:12;;;;;;;18.30;9.53;;;3.00;99.90;;;;;;5020036;28;20201;-46
2023/01/24 05:57:46;;;;;;;19.20;9.07;;;2.90;99.90;;;;;;5035717;28;20324;-45
2023/01/24 06:00:16;;;;;;;20.27;10.60;;;2.90;99.90;;;;;;5033768;28;20422;-44
2023/01/24 06:02:54;;;;;;;17.53;9.73;;;3.00;99.90;;;;;;5030434;28;20249;-49
2023/01/24 06:05:23;;;;;;;15.90;9.90;;;3.00;99.90;;;;;;5022313;28;20203;-49
2023/01/24 06:07:49;;;;;;;14.57;9.63;;;3.00;99.90;;;;;;5026823;28;20188;-44
2023/01/24 06:10:16;;;;;;;17.67;9.13;;;3.00;99.90;;;;;;5031190;28;20288;-49
2023/01/24 06:13:02;;;;;;;13.17;8.10;;;3.00;99.90;;;;;;5024755;28;20304;-46
2023/01/24 06:15:29;;;;;;;16.77;9.57;;;3.00;99.90;;;;;;5016783;28;20207;-54
2023/01/24 06:17:57;;;;;;;14.47;8.83;;;2.90;99.90;;;;;;5036854;28;20212;-48
2023/01/24 06:20:24;;;;;;;13.17;8.53;;;2.90;99.90;;;;;;5021205;28;20223;-51
2023/01/24 06:22:53;;;;;;;17.07;10.77;;;2.90;99.90;;;;;;5025376;28;20210;-49
2023/01/24 06:25:25;;;;;;;17.67;9.57;;;2.90;99.90;;;;;;5031708;28;20191;-50
2023/01/24 06:27:52;;;;;;;12.63;8.73;;;2.90;99.90;;;;;;5028779;28;20365;-46
2023/01/24 06:30:21;;;;;;;18.50;9.37;;;2.90;99.90;;;;;;5030075;28;20612;-52
2023/01/24 06:33:03;;;;;;;18.07;10.07;;;3.00;99.90;;;;;;5024769;28;20216;-51
2023/01/24 06:35:36;;;;;;;13.90;9.10;;;2.90;99.90;;;;;;5012067;28;20816;-50
2023/01/24 06:38:03;;;;;;;12.07;8.83;;;3.00;99.90;;;;;;5041593;28;20249;-52
2023/01/24 06:40:31;;;;;;;9.80;6.30;;;3.00;99.90;;;;;;5027248;28;20231;-50
2023/01/24 06:42:58;;;;;;;10.60;6.03;;;2.90;99.90;;;;;;5026672;28;20295;-48
2023/01/24 06:45:26;;;;;;;13.23;6.83;;;2.90;99.90;;;;;;5027383;28;20191;-49
2023/01/24 06:47:55;;;;;;;10.27;6.63;;;2.90;99.90;;;;;;5033187;28;20203;-47
2023/01/24 06:50:25;;;;;;;8.77;6.27;;;2.90;99.90;;;;;;5012678;28;20269;-51
2023/01/24 06:52:52;;;;;;;10.93;6.03;;;2.90;99.90;;;;;;5032981;28;20228;-45
2023/01/24 06:55:19;;;;;;;8.40;5.03;;;2.90;99.90;;;;;;5028266;28;20203;-50
2023/01/24 06:57:47;;;;;;;8.93;5.43;;;2.90;99.90;;;;;;5042843;28;20195;-47
2023/01/24 07:00:15;;;;;;;7.63;4.73;;;2.90;99.90;;;;;;5030854;28;20736;-51
2023/01/24 07:02:44;;;;;;;5.10;4.47;;;2.90;99.90;;;;;;5033029;28;20253;-48
2023/01/24 07:05:11;;;;;;;4.67;3.97;;;2.80;99.90;;;;;;5024676;28;20203;-48
2023/01/24 07:07:38;;;;;;;7.33;5.00;;;2.80;99.90;;;;;;5036576;28;20187;-49
2023/01/24 07:10:06;;;;;;;6.30;4.23;;;2.80;99.90;;;;;;5042565;28;20219;-50
2023/01/24 07:12:33;;;;;;;6.03;3.93;;;2.80;99.90;;;;;;5028078;28;20207;-47
2023/01/24 07:14:59;;;;;;;6.13;4.10;;;2.80;99.90;;;;;;5031067;28;20214;-45
2023/01/24 07:17:27;;;;;;;5.50;3.70;;;2.80;99.90;;;;;;5029715;28;20219;-45
2023/01/24 07:19:55;;;;;;;6.17;3.80;;;2.80;99.90;;;;;;5026670;28;20188;-53
2023/01/24 07:22:23;;;;;;;5.50;3.93;;;2.80;99.90;;;;;;5031955;28;20211;-48
2023/01/24 07:24:50;;;;;;;5.10;4.43;;;2.80;99.90;;;;;;5041129;28;20203;-53
2023/01/24 07:27:18;;;;;;;7.40;4.70;;;2.80;99.90;;;;;;5041091;28;20203;-46
2023/01/24 07:29:45;;;;;;;7.60;5.00;;;2.80;99.90;;;;;;5035467;28;20574;-50
2023/01/24 07:32:12;;;;;;;5.23;4.67;;;2.80;99.90;;;;;;5040658;28;20195;-49
2023/01/24 07:34:38;;;;;;;7.10;4.30;;;2.80;99.90;;;;;;5037822;28;20269;-50
2023/01/24 07:37:08;;;;;;;5.90;3.90;;;2.90;99.90;;;;;;5014849;28;20211;-51
2023/01/24 07:39:35;;;;;;;6.50;4.30;;;2.80;99.90;;;;;;5043087;28;20294;-52
2023/01/24 07:42:01;;;;;;;6.23;4.73;;;2.80;99.90;;;;;;5038955;28;20297;-51
2023/01/24 07:44:28;;;;;;;5.43;4.33;;;2.80;99.90;;;;;;5043501;28;20256;-45
2023/01/24 07:46:55;;;;;;;7.10;4.27;;;2.90;99.90;;;;;;5030358;28;20281;-51
2023/01/24 07:49:22;;;;;;;6.93;5.00;;;2.80;99.90;;;;;;5032691;28;20277;-47
2023/01/24 07:51:49;;;;;;;6.53;5.00;;;2.80;99.90;;;;;;5031103;28;20230;-53
2023/01/24 07:54:19;;;;;;;6.23;5.00;;;2.90;99.90;;;;;;5021743;28;20212;-45
2023/01/24 07:56:47;;;;;;;7.07;4.57;;;2.90;99.90;;;;;;5038413;28;20210;-52
2023/01/24 07:59:14;;;;;;;10.50;4.40;;;2.90;99.90;;;;;;5041253;28;20194;-46
2023/01/24 08:01:41;;;;;;;9.93;4.57;;;2.90;99.90;;;;;;5034441;28;20226;-49
2023/01/24 08:04:08;;;;;;;5.30;4.13;;;2.90;99.90;;;;;;5032853;28;20770;-49
2023/01/24 08:06:35;;;;;;;4.57;3.97;;;2.80;99.90;;;;;;5042692;28;20587;-50
2023/01/24 08:09:01;;;;;;;6.23;4.37;;;2.80;99.90;;;;;;5022072;28;20199;-51
2023/01/24 08:11:30;;;;;;;6.27;4.47;;;2.80;99.90;;;;;;5025721;28;20290;-45
2023/01/24 08:13:57;;;;;;;5.57;4.47;;;2.90;99.90;;;;;;5025821;28;20226;-52
2023/01/24 08:16:25;;;;;;;5.13;4.23;;;2.90;99.90;;;;;;5025474;28;20215;-50
2023/01/24 08:18:52;;;;;;;6.10;4.10;;;2.90;99.90;;;;;;5025772;28;20203;-51
2023/01/24 08:21:19;;;;;;;4.97;3.80;;;2.90;99.90;;;;;;5014887;28;20364;-47
2023/01/24 08:23:45;;;;;;;5.40;3.80;;;2.80;99.90;;;;;;5017777;28;20191;-50
2023/01/24 08:26:12;;;;;;;5.63;4.33;;;2.80;99.90;;;;;;5031914;28;20200;-52
2023/01/24 08:28:40;;;;;;;5.97;4.53;;;2.90;99.90;;;;;;5035810;28;20206;-50
2023/01/24 08:31:07;;;;;;;9.10;4.50;;;2.90;99.90;;;;;;5027665;28;20837;-44
2023/01/24 08:33:37;;;;;;;7.13;4.80;;;2.80;99.90;;;;;;5024999;28;20226;-49
2023/01/24 08:36:05;;;;;;;5.00;4.30;;;2.90;99.90;;;;;;5029000;28;20199;-50
2023/01/24 08:38:31;;;;;;;6.67;4.40;;;2.90;99.90;;;;;;5038704;28;20200;-48
2023/01/24 08:40:58;;;;;;;8.47;5.17;;;2.90;99.90;;;;;;5022821;28;20311;-49
2023/01/24 08:43:25;;;;;;;10.30;5.10;;;2.90;99.90;;;;;;5034998;28;20192;-44
2023/01/24 08:45:56;;;;;;;7.50;5.20;;;2.90;99.90;;;;;;5035635;28;20962;-49
2023/01/24 08:48:22;;;;;;;7.43;4.77;;;2.90;99.90;;;;;;5039440;28;20214;-46
2023/01/24 08:50:49;;;;;;;9.83;5.67;;;2.90;99.90;;;;;;5025396;28;20237;-50
2023/01/24 08:53:16;;;;;;;7.77;5.37;;;3.00;99.90;;;;;;5038900;28;20299;-44
2023/01/24 08:55:42;;;;;;;8.77;5.30;;;2.90;99.90;;;;;;5023497;28;20340;-48
2023/01/24 08:58:09;;;;;;;9.53;5.90;;;3.00;99.90;;;;;;5026884;28;20690;-44
2023/01/24 09:00:36;;;;;;;7.40;5.20;;;3.10;99.90;;;;;;5038235;28;20219;-48
2023/01/24 09:03:04;;;;;;;6.10;5.50;;;3.10;99.90;;;;;;5036866;28;20654;-46
2023/01/24 09:05:31;;;;;;;7.20;5.77;;;3.00;99.90;;;;;;5035908;28;20206;-48
2023/01/24 09:07:58;;;;;;;10.83;5.40;;;3.00;99.90;;;;;;5032666;28;20195;-46
2023/01/24 09:10:25;;;;;;;6.50;5.80;;;3.10;99.90;;;;;;5026794;28;20219;-44
2023/01/24 09:12:52;;;;;;;8.00;5.20;;;3.10;99.90;;;;;;5030559;28;21012;-47
2023/01/24 09:15:18;;;;;;;8.63;5.30;;;3.10;99.90;;;;;;5045678;28;20712;-46
2023/01/24 09:17:45;;;;;;;7.70;5.40;;;3.10;99.90;;;;;;5023361;28;20279;-50
2023/01/24 09:20:14;;;;;;;8.63;5.73;;;3.10;99.90;;;;;;5034279;28;20228;-47
2023/01/24 09:22:41;;;;;;;8.20;5.23;;;3.00;99.90;;;;;;5037716;28;20207;-51
2023/01/24 09:25:09;;;;;;;8.40;5.77;;;3.00;99.90;;;;;;5042988;28;20188;-46
2023/01/24 09:27:35;;;;;;;8.07;6.00;;;3.10;99.90;;;;;;5025084;28;20548;-51
2023/01/24 09:30:04;;;;;;;9.10;5.53;;;3.10;99.90;;;;;;5031325;28;20219;-46
2023/01/24 09:32:30;;;;;;;9.70;5.40;;;3.10;99.90;;;;;;5042212;28;20203;-49
2023/01/24 09:34:57;;;;;;;9.03;5.80;;;3.10;99.90;;;;;;5024522;28;20996;-48
2023/01/24 09:37:26;;;;;;;8.30;5.20;;;3.10;99.90;;;;;;5039625;28;20674;-47
2023/01/24 09:39:55;;;;;;;8.20;5.07;;;3.20;99.90;;;;;;5041067;28;20196;-48
2023/01/24 09:42:30;;;;;;;6.10;4.67;;;3.00;99.90;;;;;;5025281;28;20215;-48
2023/01/24 09:45:10;;;;;;;8.07;4.80;;;3.00;99.90;;;;;;5034892;28;20187;-47
2023/01/24 09:47:42;;;;;;;7.00;5.83;;;3.10;99.90;;;;;;5042321;28;20680;-51
2023/01/24 09:50:15;;;;;;;5.87;5.20;;;3.10;99.90;;;;;;5036793;28;20259;-49
2023/01/24 09:52:46;;;;;;;11.00;5.00;;;3.10;99.90;;;;;;5039085;28;20207;-51
2023/01/24 09:55:19;;;;;;;6.17;4.90;;;3.10;99.90;;;;;;5043579;28;20207;-47
2023/01/24 09:57:52;;;;;;;6.50;4.77;;;3.10;99.90;;;;;;5026734;28;20211;-50
2023/01/24 10:00:25;;;;;;;6.73;4.87;;;3.10;99.90;;;;;;5032610;28;20223;-49
2023/01/24 10:02:53;;;;;;;10.10;5.10;;;3.10;99.90;;;;;;5039405;28;20231;-46
2023/01/24 10:05:23;;;;;;;6.83;4.33;;;3.10;99.90;;;;;;5028103;28;20204;-46
2023/01/24 10:08:09;;;;;;;7.10;4.90;;;3.10;99.90;;;;;;5033976;28;20283;-45
2023/01/24 10:10:50;;;;;;;7.73;5.07;;;3.10;99.90;;;;;;5031645;28;20228;-50
2023/01/24 10:14:14;;;;;;;5.83;5.10;;;3.10;99.90;;;;;;5020497;28;20269;-49
2023/01/24 10:17:17;;;;;;;6.37;4.63;;;3.10;99.90;;;;;;5036590;28;20206;-51
2023/01/24 10:20:08;;;;;;;8.07;4.67;;;3.10;99.90;;;;;;5022374;28;20218;-52
2023/01/24 10:22:56;;;;;;;7.50;5.30;;;3.20;99.90;;;;;;5034547;28;20196;-50
2023/01/24 10:25:27;;;;;;;7.20;4.63;;;3.10;99.90;;;;;;5030260;28;20199;-46
2023/01/24 10:27:58;;;;;;;5.33;4.60;;;3.20;99.90;;;;;;5037374;28;20226;-45
2023/01/24 10:30:31;;;;;;;6.70;4.87;;;3.20;99.90;;;;;;5020689;28;20226;-47
2023/01/24 10:33:03;;;;;;;5.10;4.60;;;3.20;99.90;;;;;;5031751;28;20278;-48
2023/01/24 10:35:37;;;;;;;6.70;4.83;;;3.20;99.90;;;;;;5028381;28;20207;-50
2023/01/24 10:38:10;;;;;;;8.37;5.00;;;3.20;99.90;;;;;;5030170;28;20282;-49
2023/01/24 10:40:50;;;;;;;9.53;5.23;;;3.20;99.90;;;;;;5023241;28;20216;-48
2023/01/24 10:43:17;;;;;;;5.60;4.87;;;3.20;99.90;;;;;;5042894;28;20285;-47
2023/01/24 10:45:53;;;;;;;9.77;5.90;;;3.20;99.90;;;;;;5020897;28;20226;-49
2023/01/24 10:48:41;;;;;;;6.87;5.70;;;3.20;99.90;;;;;;5037959;28;20814;-49
2023/01/24 10:51:26;;;;;;;6.57;5.13;;;3.20;99.90;;;;;;5028701;28;20338;-44
2023/01/24 10:54:01;;;;;;;8.60;5.37;;;3.20;99.90;;;;;;5027086;28;20219;-46
2023/01/24 10:56:29;;;;;;;9.43;5.27;;;3.20;99.90;;;;;;5027831;28;20209;-45
2023/01/24 10:58:59;;;;;;;8.57;5.47;;;3.20;99.90;;;;;;5031041;28;20223;-47
2023/01/24 11:01:33;;;;;;;7.63;6.03;;;3.10;99.90;;;;;;5007331;28;20211;-51
2023/01/24 11:04:14;;;;;;;7.63;5.67;;;3.20;99.90;;;;;;5030599;28;20217;-48
2023/01/24 11:06:41;;;;;;;8.80;6.10;;;3.20;99.90;;;;;;5020115;28;20870;-45
2023/01/24 11:09:11;;;;;;;9.17;6.17;;;3.20;99.90;;;;;;5030605;28;20193;-51
2023/01/24 11:11:42;;;;;;;8.47;5.60;;;3.20;99.90;;;;;;5025318;28;20237;-44
2023/01/24 11:14:14;;;;;;;8.53;5.63;;;3.20;99.90;;;;;;5031350;28;20678;-48
2023/01/24 11:16:43;;;;;;;8.97;6.23;;;3.20;99.90;;;;;;5018307;28;21755;-46
2023/01/24 11:19:25;;;;;;;6.93;5.60;;;3.20;99.90;;;;;;5030825;28;20204;-50
2023/01/24 11:21:55;;;;;;;7.50;5.73;;;3.20;99.90;;;;;;5030507;28;20262;-45
2023/01/24 11:24:22;;;;;;;8.70;5.73;;;3.20;99.90;;;;;;5023006;28;20191;-45
2023/01/24 11:26:58;;;;;;;9.70;5.77;;;3.20;99.90;;;;;;5025607;28;20214;-46
2023/01/24 11:29:25;;;;;;;9.57;6.03;;;3.10;99.90;;;;;;5024131;28;20442;-44
2023/01/24 11:31:54;;;;;;;8.27;6.27;;;3.20;99.90;;;;;;5028179;28;20215;-44
2023/01/24 11:34:45;;;;;;;6.23;5.63;;;3.20;99.90;;;;;;5016856;28;20290;-45
2023/01/24 11:37:34;;;;;;;8.87;5.67;;;3.20;99.90;;;;;;5020971;28;20226;-54
2023/01/24 11:40:18;;;;;;;7.93;5.80;;;3.10;99.90;;;;;;5026741;28;20829;-51
2023/01/24 11:42:54;;;;;;;7.40;5.23;;;3.20;99.90;;;;;;5030508;28;20199;-44
2023/01/24 11:45:33;;;;;;;7.07;6.03;;;3.20;99.90;;;;;;5030258;28;20242;-52
2023/01/24 11:48:15;;;;;;;9.83;6.63;;;3.20;99.90;;;;;;5014018;28;20222;-46
2023/01/24 11:50:50;;;;;;;8.87;5.53;;;3.20;99.90;;;;;;5032580;28;20230;-49
2023/01/24 11:53:43;;;;;;;8.43;6.07;;;3.20;99.90;;;;;;5019744;28;20203;-50
2023/01/24 11:56:21;;;;;;;7.83;6.33;;;3.20;99.90;;;;;;5019227;28;20208;-47
2023/01/24 11:59:08;;;;;;;7.97;5.80;;;3.20;99.90;;;;;;5024006;28;20238;-52
2023/01/24 12:01:47;;;;;;;9.57;7.03;;;3.20;99.90;;;;;;5036015;28;20218;-47
2023/01/24 12:04:28;;;;;;;7.83;6.20;;;3.20;99.90;;;;;;5019865;28;20206;-44
2023/01/24 12:07:03;;;;;;;10.77;6.50;;;3.20;99.90;;;;;;5023886;28;20215;-45
2023/01/24 12:09:38;;;;;;;7.47;5.83;;;3.20;99.90;;;;;;5025441;28;20198;-48
2023/01/24 12:12:14;;;;;;;7.57;5.93;;;3.10;99.90;;;;;;5038244;28;20197;-49
2023/01/24 12:15:05;;;;;;;9.53;6.80;;;3.10;99.90;;;;;;5029715;28;20210;-48
2023/01/24 12:17:53;;;;;;;7.50;6.37;;;3.10;99.90;;;;;;5034534;28;20191;-52
2023/01/24 12:20:35;;;;;;;7.67;5.90;;;3.10;99.90;;;;;;5022548;28;20223;-50
2023/01/24 12:23:11;;;;;;;8.37;6.43;;;3.10;99.90;;;;;;5025951;28;20575;-45
2023/01/24 12:25:44;;;;;;;11.07;6.80;;;3.10;99.90;;;;;;5025879;28;20202;-44
2023/01/24 12:28:15;;;;;;;6.57;5.87;;;3.20;99.90;;;;;;5042024;28;20285;-50
2023/01/24 12:30:48;;;;;;;9.27;6.67;;;3.20;99.90;;;;;;5032391;28;20247;-45
2023/01/24 12:33:23;;;;;;;9.83;6.47;;;3.20;99.90;;;;;;5040592;28;20667;-50
2023/01/24 12:35:54;;;;;;;9.17;6.43;;;3.20;99.90;;;;;;5022149;28;20214;-46
2023/01/24 12:38:30;;;;;;;8.93;6.33;;;3.20;99.90;;;;;;5031327;28;20282;-49
2023/01/24 12:41:01;;;;;;;8.63;6.93;;;3.20;99.90;;;;;;5026152;28;20237;-47
2023/01/24 12:43:40;;;;;;;10.03;7.10;;;3.20;99.90;;;;;;5035713;28;20206;-48
2023/01/24 12:46:14;;;;;;;8.23;6.30;;;3.30;99.90;;;;;;5041642;28;20199;-45
2023/01/24 12:48:47;;;;;;;9.17;6.50;;;3.30;99.90;;;;;;5040617;28;20773;-48
2023/01/24 12:51:21;;;;;;;9.53;6.47;;;3.30;99.90;;;;;;5026768;28;20226;-53
2023/01/24 12:53:58;;;;;;;7.37;6.20;;;3.30;99.90;;;;;;5024932;28;20963;-48
2023/01/24 12:56:31;;;;;;;9.70;6.20;;;3.20;99.90;;;;;;5034793;28;20195;-49
2023/01/24 12:58:58;;;;;;;6.80;5.90;;;3.20;99.90;;;;;;5042572;28;20199;-47
2023/01/24 13:02:13;;;;;;;7.40;6.13;;;3.20;99.90;;;;;;5035545;28;20280;-48
2023/01/24 13:04:49;;;;;;;6.93;5.97;;;3.20;99.90;;;;;;5022491;28;20286;-44
2023/01/24 13:07:29;;;;;;;8.23;6.10;;;3.10;99.90;;;;;;5034696;28;20206;-52
2023/01/24 13:10:04;;;;;;;7.60;6.53;;;3.20;99.90;;;;;;5029091;28;20207;-44
2023/01/24 13:12:53;;;;;;;7.03;5.37;;;3.20;99.90;;;;;;5035124;28;20348;-49
2023/01/24 13:15:24;;;;;;;10.30;5.93;;;3.20;99.90;;;;;;5033794;28;20223;-51
2023/01/24 13:18:20;;;;;;;6.83;5.97;;;3.20;99.90;;;;;;5033572;28;20217;-44
2023/01/24 13:20:57;;;;;;;6.20;5.60;;;3.20;99.90;;;;;;5024802;28;20227;-44
2023/01/24 13:23:36;;;;;;;7.60;5.63;;;3.10;99.90;;;;;;5040571;28;20204;-49
2023/01/24 13:26:26;;;;;;;7.47;6.17;;;3.10;99.90;;;;;;5033031;28;20196;-50
2023/01/24 13:29:03;;;;;;;8.47;5.87;;;3.10;99.90;;;;;;5031612;28;20313;-50
2023/01/24 13:31:34;;;;;;;7.00;5.87;;;3.10;99.90;;;;;;5029458;28;20225;-53
2023/01/24 13:34:05;;;;;;;7.30;6.37;;;3.10;99.90;;;;;;5043122;28;20199;-49
2023/01/24 13:36:34;;;;;;;9.40;6.30;;;3.10;99.90;;;;;;5027362;28;20226;-50
2023/01/24 13:39:01;;;;;;;7.43;6.27;;;3.20;99.90;;;;;;5038808;28;20563;-45
2023/01/24 13:41:37;;;;;;;7.03;5.93;;;3.20;99.90;;;;;;5030876;28;20231;-50
2023/01/24 13:44:25;;;;;;;9.30;6.67;;;3.10;99.90;;;;;;5042415;28;20226;-49
2023/01/24 13:47:22;;;;;;;9.40;6.80;;;3.10;99.90;;;;;;5018577;28;20226;-50
2023/01/24 13:50:14;;;;;;;6.87;5.93;;;3.20;99.90;;;;;;5029021;28;20236;-52
2023/01/24 13:52:48;;;;;;;9.20;6.17;;;3.20;99.90;;;;;;5017624;28;20285;-46